Accueil
METAR-TAF:

METAR-TAF

Aéroports :

Kermanshah, Iran

latitude: 34-16N, longitude: 047-07E, altitude: 1320 m

Observation

Le bulletin a été fait il y a 37 minutes, à 07:30 UTC
Vent 10 kt de est
Température 34°C
Humidité 9%
Pression 1008 hPa
Visibilité 10 km ou plus
Quelques nuages à une hauteur de 5000 ft

METAR: OICC 070730Z 09010KT 9999 FEW050 34/M03 Q1007 A2976

Heure: 12:37 (08:07 UTC)


TAF: absent

Observations et prévisions météorologiques de plus de 4000 aéroports (messages METAR et TAF).

Les stations disponibles sont représentées par des disques jaunes et rouges sur la carte.

Passer la souris dessus pour voir le nom de la station.

Cliquer dessus pour voir les observations et prévisions météorologiques.

Pour changer de carte: cliquez sur les boutons verts avec une croix noire pour zoomer, sur le bouton vert avec un tiret pour effectuer un zoom arrière, ou sur les flèches vertes pour les cartes adjacentes.


METAR-TAF: